sensor_id;sensor_type;location;lat;lon;timestamp;pressure;altitude;pressure_sealevel;temperature;humidity
38452;BME280;24231;52.514;13.438;2023-03-21T00:06:19;101186.14;;;12.10;46.61
38452;BME280;24231;52.514;13.438;2023-03-21T00:08:47;101183.21;;;12.16;46.78
38452;BME280;24231;52.514;13.438;2023-03-21T00:11:15;101182.30;;;12.99;44.65
38452;BME280;24231;52.514;13.438;2023-03-21T00:13:42;101181.54;;;11.84;46.86
38452;BME280;24231;52.514;13.438;2023-03-21T00:16:11;101179.70;;;11.93;47.29
38452;BME280;24231;52.514;13.438;2023-03-21T00:18:40;101179.40;;;11.55;47.67
38452;BME280;24231;52.514;13.438;2023-03-21T00:21:11;101176.31;;;12.15;46.81
38452;BME280;24231;52.514;13.438;2023-03-21T00:23:38;101171.59;;;11.92;47.21
38452;BME280;24231;52.514;13.438;2023-03-21T00:26:06;101175.42;;;11.89;47.43
38452;BME280;24231;52.514;13.438;2023-03-21T00:28:34;101173.56;;;12.37;46.34
38452;BME280;24231;52.514;13.438;2023-03-21T00:31:01;101170.35;;;12.80;45.17
38452;BME280;24231;52.514;13.438;2023-03-21T00:33:46;101168.60;;;11.80;47.20
38452;BME280;24231;52.514;13.438;2023-03-21T00:36:34;101168.23;;;12.31;46.06
38452;BME280;24231;52.514;13.438;2023-03-21T00:39:30;101162.90;;;13.35;43.93
38452;BME280;24231;52.514;13.438;2023-03-21T00:42:08;101160.43;;;14.09;42.47
38452;BME280;24231;52.514;13.438;2023-03-21T00:44:35;101162.62;;;14.30;41.55
38452;BME280;24231;52.514;13.438;2023-03-21T00:47:03;101155.54;;;14.02;42.25
38452;BME280;24231;52.514;13.438;2023-03-21T00:49:30;101156.22;;;13.86;42.19
38452;BME280;24231;52.514;13.438;2023-03-21T00:51:57;101157.60;;;13.28;43.91
38452;BME280;24231;52.514;13.438;2023-03-21T00:54:25;101158.51;;;13.72;42.75
38452;BME280;24231;52.514;13.438;2023-03-21T00:56:53;101155.75;;;13.79;42.62
38452;BME280;24231;52.514;13.438;2023-03-21T00:59:21;101156.71;;;14.04;42.32
38452;BME280;24231;52.514;13.438;2023-03-21T01:01:48;101153.72;;;13.30;43.69
38452;BME280;24231;52.514;13.438;2023-03-21T01:04:19;101154.75;;;13.76;43.39
38452;BME280;24231;52.514;13.438;2023-03-21T01:06:47;101157.29;;;13.64;43.91
38452;BME280;24231;52.514;13.438;2023-03-21T01:09:16;101156.34;;;13.76;43.87
38452;BME280;24231;52.514;13.438;2023-03-21T01:11:44;101150.95;;;12.98;45.61
38452;BME280;24231;52.514;13.438;2023-03-21T01:14:12;101150.32;;;13.52;44.99
38452;BME280;24231;52.514;13.438;2023-03-21T01:16:40;101152.94;;;10.83;51.12
38452;BME280;24231;52.514;13.438;2023-03-21T01:19:09;101154.33;;;10.88;52.20
38452;BME280;24231;52.514;13.438;2023-03-21T01:21:37;101152.56;;;11.08;50.94
38452;BME280;24231;52.514;13.438;2023-03-21T01:24:05;101151.85;;;12.26;48.78
38452;BME280;24231;52.514;13.438;2023-03-21T01:26:33;101149.75;;;12.35;48.35
38452;BME280;24231;52.514;13.438;2023-03-21T01:29:00;101149.11;;;12.18;49.06
38452;BME280;24231;52.514;13.438;2023-03-21T01:31:28;101151.36;;;12.13;49.08
38452;BME280;24231;52.514;13.438;2023-03-21T01:33:56;101151.33;;;11.26;50.46
38452;BME280;24231;52.514;13.438;2023-03-21T01:36:25;101146.72;;;11.61;50.23
38452;BME280;24231;52.514;13.438;2023-03-21T01:38:52;101148.02;;;12.18;48.66
38452;BME280;24231;52.514;13.438;2023-03-21T01:41:24;101148.24;;;11.96;48.48
38452;BME280;24231;52.514;13.438;2023-03-21T01:43:52;101148.65;;;10.84;50.55
38452;BME280;24231;52.514;13.438;2023-03-21T01:46:32;101148.18;;;11.97;48.64
38452;BME280;24231;52.514;13.438;2023-03-21T01:49:08;101145.21;;;11.81;48.34
38452;BME280;24231;52.514;13.438;2023-03-21T01:51:41;101145.10;;;11.72;48.55
38452;BME280;24231;52.514;13.438;2023-03-21T01:54:14;101144.09;;;12.47;47.32
38452;BME280;24231;52.514;13.438;2023-03-21T01:56:45;101142.73;;;12.89;45.95
38452;BME280;24231;52.514;13.438;2023-03-21T01:59:16;101140.35;;;12.55;46.21
38452;BME280;24231;52.514;13.438;2023-03-21T02:01:45;101139.37;;;12.51;46.70
38452;BME280;24231;52.514;13.438;2023-03-21T02:04:13;101141.38;;;11.42;49.11
38452;BME280;24231;52.514;13.438;2023-03-21T02:06:47;101140.18;;;11.96;48.38
38452;BME280;24231;52.514;13.438;2023-03-21T02:09:19;101140.22;;;12.29;48.33
38452;BME280;24231;52.514;13.438;2023-03-21T02:11:54;101141.14;;;11.90;48.56
38452;BME280;24231;52.514;13.438;2023-03-21T02:14:21;101143.79;;;12.41;48.32
38452;BME280;24231;52.514;13.438;2023-03-21T02:16:53;101143.64;;;11.91;49.11
38452;BME280;24231;52.514;13.438;2023-03-21T02:19:43;101141.86;;;11.37;50.48
38452;BME280;24231;52.514;13.438;2023-03-21T02:22:48;101142.87;;;12.19;47.97
38452;BME280;24231;52.514;13.438;2023-03-21T02:25:40;101134.97;;;12.87;46.18
38452;BME280;24231;52.514;13.438;2023-03-21T02:28:18;101133.21;;;11.02;50.76
38452;BME280;24231;52.514;13.438;2023-03-21T02:31:13;101139.13;;;11.58;50.26
38452;BME280;24231;52.514;13.438;2023-03-21T02:34:52;101136.92;;;11.85;49.45
38452;BME280;24231;52.514;13.438;2023-03-21T02:37:29;101137.22;;;11.07;51.91
38452;BME280;24231;52.514;13.438;2023-03-21T02:40:08;101134.94;;;11.41;50.54
38452;BME280;24231;52.514;13.438;2023-03-21T02:42:48;101134.49;;;10.55;53.02
38452;BME280;24231;52.514;13.438;2023-03-21T02:45:21;101132.64;;;11.92;50.54
38452;BME280;24231;52.514;13.438;2023-03-21T02:47:53;101135.25;;;11.58;50.79
38452;BME280;24231;52.514;13.438;2023-03-21T02:50:26;101134.78;;;10.78;52.95
38452;BME280;24231;52.514;13.438;2023-03-21T02:52:57;101142.67;;;10.30;54.31
38452;BME280;24231;52.514;13.438;2023-03-21T02:55:30;101139.96;;;9.64;56.70
38452;BME280;24231;52.514;13.438;2023-03-21T02:58:11;101134.64;;;11.26;51.60
38452;BME280;24231;52.514;13.438;2023-03-21T03:00:49;101131.71;;;12.47;48.65
38452;BME280;24231;52.514;13.438;2023-03-21T03:03:18;101130.23;;;13.02;47.38
38452;BME280;24231;52.514;13.438;2023-03-21T03:08:03;101134.91;;;11.32;52.04
38452;BME280;24231;52.514;13.438;2023-03-21T03:10:47;101139.07;;;10.41;54.12
38452;BME280;24231;52.514;13.438;2023-03-21T03:14:33;101139.42;;;11.75;50.55
38452;BME280;24231;52.514;13.438;2023-03-21T03:17:16;101139.22;;;11.91;50.11
38452;BME280;24231;52.514;13.438;2023-03-21T03:20:03;101137.38;;;12.83;48.79
38452;BME280;24231;52.514;13.438;2023-03-21T03:22:40;101137.07;;;12.54;48.95
38452;BME280;24231;52.514;13.438;2023-03-21T03:25:12;101136.98;;;12.50;48.86
38452;BME280;24231;52.514;13.438;2023-03-21T03:27:41;101135.41;;;12.71;49.35
38452;BME280;24231;52.514;13.438;2023-03-21T03:30:12;101141.59;;;11.87;51.74
38452;BME280;24231;52.514;13.438;2023-03-21T03:32:45;101141.06;;;12.07;51.33
38452;BME280;24231;52.514;13.438;2023-03-21T03:35:15;101137.10;;;12.86;48.88
38452;BME280;24231;52.514;13.438;2023-03-21T03:37:46;101140.58;;;12.82;49.15
38452;BME280;24231;52.514;13.438;2023-03-21T03:40:17;101141.65;;;12.96;49.09
38452;BME280;24231;52.514;13.438;2023-03-21T03:42:51;101140.90;;;12.65;49.64
38452;BME280;24231;52.514;13.438;2023-03-21T03:45:20;101142.44;;;12.51;50.34
38452;BME280;24231;52.514;13.438;2023-03-21T03:47:53;101147.67;;;11.07;55.36
38452;BME280;24231;52.514;13.438;2023-03-21T03:50:27;101149.16;;;11.19;55.04
38452;BME280;24231;52.514;13.438;2023-03-21T03:53:02;101148.53;;;11.84;53.24
38452;BME280;24231;52.514;13.438;2023-03-21T03:55:32;101149.65;;;11.29;55.41
38452;BME280;24231;52.514;13.438;2023-03-21T03:58:01;101149.00;;;11.49;54.81
38452;BME280;24231;52.514;13.438;2023-03-21T04:00:31;101148.41;;;11.97;53.29
38452;BME280;24231;52.514;13.438;2023-03-21T04:03:00;101147.59;;;12.18;53.22
38452;BME280;24231;52.514;13.438;2023-03-21T04:05:27;101141.78;;;12.64;51.92
38452;BME280;24231;52.514;13.438;2023-03-21T04:07:56;101144.72;;;10.51;57.62
38452;BME280;24231;52.514;13.438;2023-03-21T04:10:23;101149.74;;;10.18;60.26
38452;BME280;24231;52.514;13.438;2023-03-21T04:12:50;101141.29;;;11.70;55.09
38452;BME280;24231;52.514;13.438;2023-03-21T04:15:18;101138.39;;;11.04;55.62
38452;BME280;24231;52.514;13.438;2023-03-21T04:17:45;101140.68;;;11.84;54.07
38452;BME280;24231;52.514;13.438;2023-03-21T04:20:13;101140.91;;;12.19;52.92
38452;BME280;24231;52.514;13.438;2023-03-21T04:22:40;101147.02;;;10.20;58.66
38452;BME280;24231;52.514;13.438;2023-03-21T04:25:08;101147.64;;;9.69;61.15
38452;BME280;24231;52.514;13.438;2023-03-21T04:27:36;101137.92;;;11.20;56.97
38452;BME280;24231;52.514;13.438;2023-03-21T04:30:04;101143.10;;;10.39;59.07
38452;BME280;24231;52.514;13.438;2023-03-21T04:32:31;101143.36;;;9.06;63.37
38452;BME280;24231;52.514;13.438;2023-03-21T04:34:58;101144.88;;;10.01;60.97
38452;BME280;24231;52.514;13.438;2023-03-21T04:37:26;101146.78;;;9.42;62.82
38452;BME280;24231;52.514;13.438;2023-03-21T04:39:53;101145.25;;;9.88;62.02
38452;BME280;24231;52.514;13.438;2023-03-21T04:42:21;101144.19;;;9.74;62.46
38452;BME280;24231;52.514;13.438;2023-03-21T04:44:48;101143.62;;;9.13;64.88
38452;BME280;24231;52.514;13.438;2023-03-21T04:47:16;101147.50;;;9.67;63.39
38452;BME280;24231;52.514;13.438;2023-03-21T04:49:44;101147.20;;;9.70;62.48
38452;BME280;24231;52.514;13.438;2023-03-21T04:52:11;101147.00;;;9.96;61.80
38452;BME280;24231;52.514;13.438;2023-03-21T04:54:38;101140.49;;;11.44;56.98
38452;BME280;24231;52.514;13.438;2023-03-21T04:57:05;101149.03;;;10.50;59.64
38452;BME280;24231;52.514;13.438;2023-03-21T04:59:33;101144.42;;;11.56;56.67
38452;BME280;24231;52.514;13.438;2023-03-21T05:02:01;101147.03;;;10.80;58.49
38452;BME280;24231;52.514;13.438;2023-03-21T05:04:29;101145.29;;;11.61;56.20
38452;BME280;24231;52.514;13.438;2023-03-21T05:06:57;101145.14;;;12.07;54.71
38452;BME280;24231;52.514;13.438;2023-03-21T05:09:24;101144.67;;;11.70;55.45
38452;BME280;24231;52.514;13.438;2023-03-21T05:11:52;101146.10;;;11.64;56.04
38452;BME280;24231;52.514;13.438;2023-03-21T05:14:22;101145.71;;;10.61;59.62
38452;BME280;24231;52.514;13.438;2023-03-21T05:16:50;101152.35;;;10.28;60.21
38452;BME280;24231;52.514;13.438;2023-03-21T05:19:19;101147.53;;;9.89;61.88
38452;BME280;24231;52.514;13.438;2023-03-21T05:21:46;101137.85;;;11.34;57.72
38452;BME280;24231;52.514;13.438;2023-03-21T05:24:14;101137.74;;;12.24;54.86
38452;BME280;24231;52.514;13.438;2023-03-21T05:26:43;101139.17;;;11.90;56.12
38452;BME280;24231;52.514;13.438;2023-03-21T05:29:10;101140.44;;;12.20;54.99
38452;BME280;24231;52.514;13.438;2023-03-21T05:31:38;101139.42;;;12.51;54.03
38452;BME280;24231;52.514;13.438;2023-03-21T05:34:04;101136.71;;;12.48;54.41
38452;BME280;24231;52.514;13.438;2023-03-21T05:36:31;101139.93;;;10.78;60.28
38452;BME280;24231;52.514;13.438;2023-03-21T05:38:58;101141.85;;;10.47;61.35
38452;BME280;24231;52.514;13.438;2023-03-21T05:41:26;101137.94;;;11.64;57.94
38452;BME280;24231;52.514;13.438;2023-03-21T05:43:53;101140.52;;;11.59;58.12
38452;BME280;24231;52.514;13.438;2023-03-21T05:46:21;101138.45;;;11.47;58.58
38452;BME280;24231;52.514;13.438;2023-03-21T05:48:48;101135.02;;;12.64;54.77
38452;BME280;24231;52.514;13.438;2023-03-21T05:51:15;101139.93;;;10.89;59.75
38452;BME280;24231;52.514;13.438;2023-03-21T05:53:42;101145.59;;;10.70;61.11
38452;BME280;24231;52.514;13.438;2023-03-21T05:56:09;101147.93;;;10.08;63.60
38452;BME280;24231;52.514;13.438;2023-03-21T05:58:37;101140.41;;;11.34;60.05
38452;BME280;24231;52.514;13.438;2023-03-21T06:01:05;101148.87;;;10.29;62.26
38452;BME280;24231;52.514;13.438;2023-03-21T06:03:32;101147.07;;;9.49;65.00
38452;BME280;24231;52.514;13.438;2023-03-21T06:05:59;101148.08;;;9.62;65.10
38452;BME280;24231;52.514;13.438;2023-03-21T06:08:26;101146.46;;;8.94;68.65
38452;BME280;24231;52.514;13.438;2023-03-21T06:10:54;101150.03;;;9.87;65.37
38452;BME280;24231;52.514;13.438;2023-03-21T06:13:21;101154.43;;;9.40;66.52
38452;BME280;24231;52.514;13.438;2023-03-21T06:15:48;101154.61;;;9.78;66.01
38452;BME280;24231;52.514;13.438;2023-03-21T06:18:15;101156.99;;;9.48;66.97
38452;BME280;24231;52.514;13.438;2023-03-21T06:20:42;101157.11;;;8.65;69.65
38452;BME280;24231;52.514;13.438;2023-03-21T06:23:09;101157.16;;;10.02;65.44
38452;BME280;24231;52.514;13.438;2023-03-21T06:25:37;101159.68;;;9.52;66.19
38452;BME280;24231;52.514;13.438;2023-03-21T06:28:04;101159.36;;;9.37;66.75
38452;BME280;24231;52.514;13.438;2023-03-21T06:30:31;101159.52;;;10.55;63.53
38452;BME280;24231;52.514;13.438;2023-03-21T06:32:58;101151.04;;;11.26;60.53
38452;BME280;24231;52.514;13.438;2023-03-21T06:35:25;101160.90;;;9.77;66.13
38452;BME280;24231;52.514;13.438;2023-03-21T06:37:52;101159.82;;;9.95;65.13
38452;BME280;24231;52.514;13.438;2023-03-21T06:40:20;101159.31;;;9.57;66.16
38452;BME280;24231;52.514;13.438;2023-03-21T06:42:47;101164.18;;;10.07;65.42
38452;BME280;24231;52.514;13.438;2023-03-21T06:45:14;101162.94;;;9.91;66.12
38452;BME280;24231;52.514;13.438;2023-03-21T06:47:42;101160.13;;;11.12;61.77
38452;BME280;24231;52.514;13.438;2023-03-21T06:50:10;101162.93;;;9.72;65.02
38452;BME280;24231;52.514;13.438;2023-03-21T06:52:37;101165.65;;;10.04;64.37
38452;BME280;24231;52.514;13.438;2023-03-21T06:55:05;101165.52;;;9.56;67.04
38452;BME280;24231;52.514;13.438;2023-03-21T06:57:33;101161.77;;;11.61;59.72
38452;BME280;24231;52.514;13.438;2023-03-21T07:00:01;101171.02;;;9.98;64.26
38452;BME280;24231;52.514;13.438;2023-03-21T07:02:28;101171.00;;;9.64;67.87
38452;BME280;24231;52.514;13.438;2023-03-21T07:04:55;101174.80;;;10.48;63.42
38452;BME280;24231;52.514;13.438;2023-03-21T07:07:24;101164.40;;;11.13;62.18
38452;BME280;24231;52.514;13.438;2023-03-21T07:09:50;101171.84;;;9.41;68.09
38452;BME280;24231;52.514;13.438;2023-03-21T07:12:25;101168.60;;;10.61;63.88
38452;BME280;24231;52.514;13.438;2023-03-21T07:14:53;101170.71;;;9.38;68.11
38452;BME280;24231;52.514;13.438;2023-03-21T07:17:20;101173.07;;;9.09;70.18
38452;BME280;24231;52.514;13.438;2023-03-21T07:19:47;101171.94;;;10.05;67.14
38452;BME280;24231;52.514;13.438;2023-03-21T07:22:14;101174.39;;;8.71;72.00
38452;BME280;24231;52.514;13.438;2023-03-21T07:24:42;101175.75;;;8.73;73.04
38452;BME280;24231;52.514;13.438;2023-03-21T07:27:09;101174.32;;;8.69;73.31
38452;BME280;24231;52.514;13.438;2023-03-21T07:29:35;101178.39;;;8.62;73.91
38452;BME280;24231;52.514;13.438;2023-03-21T07:32:03;101178.13;;;10.09;69.12
38452;BME280;24231;52.514;13.438;2023-03-21T07:34:32;101179.31;;;10.43;66.14
38452;BME280;24231;52.514;13.438;2023-03-21T07:36:59;101179.91;;;10.59;66.45
38452;BME280;24231;52.514;13.438;2023-03-21T07:39:27;101180.13;;;10.55;65.87
38452;BME280;24231;52.514;13.438;2023-03-21T07:41:54;101175.20;;;11.09;63.84
38452;BME280;24231;52.514;13.438;2023-03-21T07:44:21;101174.41;;;12.16;60.43
38452;BME280;24231;52.514;13.438;2023-03-21T07:46:49;101182.84;;;10.56;65.58
38452;BME280;24231;52.514;13.438;2023-03-21T07:49:17;101174.76;;;11.51;63.46
38452;BME280;24231;52.514;13.438;2023-03-21T07:51:44;101183.82;;;10.37;66.09
38452;BME280;24231;52.514;13.438;2023-03-21T07:54:11;101177.17;;;11.69;62.20
38452;BME280;24231;52.514;13.438;2023-03-21T07:56:38;101176.41;;;11.54;62.68
38452;BME280;24231;52.514;13.438;2023-03-21T07:59:05;101177.01;;;10.87;65.96
38452;BME280;24231;52.514;13.438;2023-03-21T08:01:33;101173.06;;;11.27;63.31
38452;BME280;24231;52.514;13.438;2023-03-21T08:03:59;101179.64;;;10.45;67.28
38452;BME280;24231;52.514;13.438;2023-03-21T08:06:27;101173.37;;;10.68;66.07
38452;BME280;24231;52.514;13.438;2023-03-21T08:08:55;101174.48;;;9.46;70.30
38452;BME280;24231;52.514;13.438;2023-03-21T08:11:23;101175.51;;;9.65;70.02
38452;BME280;24231;52.514;13.438;2023-03-21T08:13:52;101174.54;;;9.99;69.35
38452;BME280;24231;52.514;13.438;2023-03-21T08:16:19;101172.51;;;10.25;68.22
38452;BME280;24231;52.514;13.438;2023-03-21T08:18:47;101166.41;;;11.40;64.57
38452;BME280;24231;52.514;13.438;2023-03-21T08:21:14;101166.22;;;11.30;65.01
38452;BME280;24231;52.514;13.438;2023-03-21T08:23:42;101169.78;;;11.74;63.22
38452;BME280;24231;52.514;13.438;2023-03-21T08:26:09;101177.11;;;10.08;67.69
38452;BME280;24231;52.514;13.438;2023-03-21T08:28:36;101178.66;;;10.40;67.75
38452;BME280;24231;52.514;13.438;2023-03-21T08:31:06;101173.13;;;12.10;62.28
38452;BME280;24231;52.514;13.438;2023-03-21T08:33:34;101174.50;;;11.27;64.05
38452;BME280;24231;52.514;13.438;2023-03-21T08:36:02;101178.69;;;10.76;67.15
38452;BME280;24231;52.514;13.438;2023-03-21T08:38:29;101174.83;;;11.58;63.28
38452;BME280;24231;52.514;13.438;2023-03-21T08:40:56;101179.96;;;10.60;69.02
38452;BME280;24231;52.514;13.438;2023-03-21T08:43:23;101173.03;;;11.55;64.63
38452;BME280;24231;52.514;13.438;2023-03-21T08:45:50;101182.33;;;9.81;72.08
38452;BME280;24231;52.514;13.438;2023-03-21T08:48:18;101179.73;;;9.24;74.14
38452;BME280;24231;52.514;13.438;2023-03-21T08:50:46;101178.49;;;10.24;70.85
38452;BME280;24231;52.514;13.438;2023-03-21T08:53:12;101176.14;;;10.12;71.70
38452;BME280;24231;52.514;13.438;2023-03-21T08:55:39;101176.81;;;9.91;72.16
38452;BME280;24231;52.514;13.438;2023-03-21T08:58:07;101175.67;;;9.88;72.26
38452;BME280;24231;52.514;13.438;2023-03-21T09:00:34;101179.78;;;9.58;73.59
38452;BME280;24231;52.514;13.438;2023-03-21T09:03:01;101181.22;;;9.97;72.39
38452;BME280;24231;52.514;13.438;2023-03-21T09:05:28;101176.22;;;11.60;66.48
38452;BME280;24231;52.514;13.438;2023-03-21T09:07:56;101183.61;;;9.95;71.27
38452;BME280;24231;52.514;13.438;2023-03-21T09:10:23;101183.08;;;9.72;73.70
38452;BME280;24231;52.514;13.438;2023-03-21T09:12:52;101174.76;;;11.28;67.76
38452;BME280;24231;52.514;13.438;2023-03-21T09:15:21;101181.82;;;9.93;71.87
38452;BME280;24231;52.514;13.438;2023-03-21T09:17:48;101183.92;;;10.32;72.18
38452;BME280;24231;52.514;13.438;2023-03-21T09:20:16;101183.62;;;9.52;75.20
38452;BME280;24231;52.514;13.438;2023-03-21T09:22:44;101183.67;;;8.82;77.84
38452;BME280;24231;52.514;13.438;2023-03-21T09:25:11;101179.60;;;9.15;76.95
38452;BME280;24231;52.514;13.438;2023-03-21T09:27:38;101179.71;;;9.14;77.25
38452;BME280;24231;52.514;13.438;2023-03-21T09:30:07;101176.03;;;10.88;70.42
38452;BME280;24231;52.514;13.438;2023-03-21T09:32:35;101178.53;;;10.16;72.93
38452;BME280;24231;52.514;13.438;2023-03-21T09:35:03;101183.06;;;10.50;71.23
38452;BME280;24231;52.514;13.438;2023-03-21T09:37:30;101178.39;;;9.79;74.73
38452;BME280;24231;52.514;13.438;2023-03-21T09:39:58;101179.15;;;10.53;71.39
38452;BME280;24231;52.514;13.438;2023-03-21T09:42:32;101172.69;;;9.23;77.31
38452;BME280;24231;52.514;13.438;2023-03-21T09:45:11;101176.39;;;9.97;73.94
38452;BME280;24231;52.514;13.438;2023-03-21T09:47:45;101172.00;;;10.04;72.68
38452;BME280;24231;52.514;13.438;2023-03-21T09:50:14;101173.66;;;10.50;71.27
38452;BME280;24231;52.514;13.438;2023-03-21T09:52:45;101167.29;;;11.43;68.29
38452;BME280;24231;52.514;13.438;2023-03-21T09:55:16;101174.09;;;10.40;72.70
38452;BME280;24231;52.514;13.438;2023-03-21T09:57:47;101172.10;;;9.97;73.18
38452;BME280;24231;52.514;13.438;2023-03-21T10:00:20;101164.41;;;11.07;69.89
38452;BME280;24231;52.514;13.438;2023-03-21T10:02:50;101168.76;;;10.51;71.10
38452;BME280;24231;52.514;13.438;2023-03-21T10:05:20;101159.84;;;11.63;67.13
38452;BME280;24231;52.514;13.438;2023-03-21T10:07:53;101157.14;;;12.13;64.53
38452;BME280;24231;52.514;13.438;2023-03-21T10:10:25;101156.94;;;11.06;67.19
38452;BME280;24231;52.514;13.438;2023-03-21T10:12:54;101155.85;;;10.48;68.87
38452;BME280;24231;52.514;13.438;2023-03-21T10:15:25;101150.66;;;11.83;65.32
38452;BME280;24231;52.514;13.438;2023-03-21T10:17:57;101149.31;;;12.26;63.43
38452;BME280;24231;52.514;13.438;2023-03-21T10:20:29;101148.28;;;11.00;67.63
38452;BME280;24231;52.514;13.438;2023-03-21T10:22:59;101145.88;;;11.69;64.73
38452;BME280;24231;52.514;13.438;2023-03-21T10:25:30;101146.75;;;12.00;63.93
38452;BME280;24231;52.514;13.438;2023-03-21T10:27:58;101144.10;;;13.51;58.13
38452;BME280;24231;52.514;13.438;2023-03-21T10:30:35;101139.58;;;12.73;60.77
38452;BME280;24231;52.514;13.438;2023-03-21T10:33:07;101145.03;;;10.63;67.82
38452;BME280;24231;52.514;13.438;2023-03-21T10:35:35;101141.78;;;10.53;68.75
38452;BME280;24231;52.514;13.438;2023-03-21T10:38:05;101136.97;;;10.73;69.14
38452;BME280;24231;52.514;13.438;2023-03-21T10:40:36;101133.22;;;11.84;65.38
38452;BME280;24231;52.514;13.438;2023-03-21T10:43:32;101130.57;;;11.80;65.50
38452;BME280;24231;52.514;13.438;2023-03-21T10:46:07;101127.29;;;10.60;68.94
38452;BME280;24231;52.514;13.438;2023-03-21T10:48:36;101125.36;;;10.64;69.72
38452;BME280;24231;52.514;13.438;2023-03-21T10:51:06;101123.43;;;10.19;71.08
38452;BME280;24231;52.514;13.438;2023-03-21T10:53:38;101121.23;;;10.91;68.29
38452;BME280;24231;52.514;13.438;2023-03-21T10:56:07;101125.99;;;10.46;68.05
38452;BME280;24231;52.514;13.438;2023-03-21T10:58:39;101128.27;;;10.10;70.02
38452;BME280;24231;52.514;13.438;2023-03-21T11:01:11;101127.89;;;10.11;71.00
38452;BME280;24231;52.514;13.438;2023-03-21T11:03:41;101121.06;;;11.33;66.54
38452;BME280;24231;52.514;13.438;2023-03-21T11:06:14;101124.84;;;10.38;70.10
38452;BME280;24231;52.514;13.438;2023-03-21T11:08:45;101129.10;;;9.89;72.30
38452;BME280;24231;52.514;13.438;2023-03-21T11:11:24;101126.29;;;9.95;72.18
38452;BME280;24231;52.514;13.438;2023-03-21T11:13:58;101121.47;;;11.40;66.51
38452;BME280;24231;52.514;13.438;2023-03-21T11:16:36;101116.60;;;11.43;67.05
38452;BME280;24231;52.514;13.438;2023-03-21T11:19:13;101117.15;;;11.59;65.42
38452;BME280;24231;52.514;13.438;2023-03-21T11:21:41;101112.59;;;11.28;66.69
38452;BME280;24231;52.514;13.438;2023-03-21T11:24:13;101109.80;;;11.82;64.13
38452;BME280;24231;52.514;13.438;2023-03-21T11:26:42;101110.09;;;10.63;68.67
38452;BME280;24231;52.514;13.438;2023-03-21T11:29:20;101105.06;;;10.74;68.45
38452;BME280;24231;52.514;13.438;2023-03-21T11:31:52;101103.99;;;11.09;68.00
38452;BME280;24231;52.514;13.438;2023-03-21T11:34:25;101100.30;;;11.13;67.08
38452;BME280;24231;52.514;13.438;2023-03-21T11:36:58;101097.11;;;11.08;66.60
38452;BME280;24231;52.514;13.438;2023-03-21T11:39:32;101095.41;;;12.25;62.82
38452;BME280;24231;52.514;13.438;2023-03-21T11:41:59;101092.31;;;11.51;64.84
38452;BME280;24231;52.514;13.438;2023-03-21T11:44:29;101091.26;;;11.66;63.74
38452;BME280;24231;52.514;13.438;2023-03-21T11:46:57;101085.06;;;13.05;59.15
38452;BME280;24231;52.514;13.438;2023-03-21T11:49:26;101087.49;;;13.24;58.50
38452;BME280;24231;52.514;13.438;2023-03-21T11:52:02;101085.39;;;12.50;59.95
38452;BME280;24231;52.514;13.438;2023-03-21T11:54:41;101084.08;;;11.30;65.48
38452;BME280;24231;52.514;13.438;2023-03-21T11:57:25;101082.19;;;10.74;67.69
38452;BME280;24231;52.514;13.438;2023-03-21T12:00:03;101077.98;;;10.45;70.13
38452;BME280;24231;52.514;13.438;2023-03-21T12:02:49;101075.11;;;10.39;70.57
38452;BME280;24231;52.514;13.438;2023-03-21T12:05:24;101067.78;;;10.57;69.05
38452;BME280;24231;52.514;13.438;2023-03-21T12:07:58;101068.26;;;11.04;67.72
38452;BME280;24231;52.514;13.438;2023-03-21T12:10:31;101065.78;;;11.13;68.00
38452;BME280;24231;52.514;13.438;2023-03-21T12:13:14;101063.96;;;10.87;68.22
38452;BME280;24231;52.514;13.438;2023-03-21T12:15:52;101060.94;;;11.53;65.54
38452;BME280;24231;52.514;13.438;2023-03-21T12:18:42;101055.75;;;10.91;68.13
38452;BME280;24231;52.514;13.438;2023-03-21T12:21:17;101054.23;;;10.72;69.16
38452;BME280;24231;52.514;13.438;2023-03-21T12:23:54;101050.60;;;11.08;68.20
38452;BME280;24231;52.514;13.438;2023-03-21T12:26:25;101048.11;;;11.32;67.30
38452;BME280;24231;52.514;13.438;2023-03-21T12:29:06;101040.11;;;12.33;63.07
38452;BME280;24231;52.514;13.438;2023-03-21T12:31:48;101042.50;;;10.88;68.76
38452;BME280;24231;52.514;13.438;2023-03-21T12:34:29;101040.42;;;10.47;70.43
38452;BME280;24231;52.514;13.438;2023-03-21T12:37:11;101042.07;;;10.29;71.36
38452;BME280;24231;52.514;13.438;2023-03-21T12:39:43;101037.79;;;10.97;69.41
38452;BME280;24231;52.514;13.438;2023-03-21T12:42:29;101034.28;;;11.20;68.92
38452;BME280;24231;52.514;13.438;2023-03-21T12:45:08;101030.41;;;10.64;69.97
38452;BME280;24231;52.514;13.438;2023-03-21T12:47:40;101025.28;;;10.32;71.51
38452;BME280;24231;52.514;13.438;2023-03-21T12:50:14;101026.13;;;10.40;72.53
38452;BME280;24231;52.514;13.438;2023-03-21T12:52:46;101025.89;;;10.31;72.82
38452;BME280;24231;52.514;13.438;2023-03-21T12:55:20;101023.20;;;10.48;72.50
38452;BME280;24231;52.514;13.438;2023-03-21T12:57:51;101017.50;;;10.32;72.39
38452;BME280;24231;52.514;13.438;2023-03-21T13:00:24;101016.17;;;10.25;73.07
38452;BME280;24231;52.514;13.438;2023-03-21T13:02:56;101012.12;;;10.34;72.64
38452;BME280;24231;52.514;13.438;2023-03-21T13:05:29;101006.69;;;10.42;73.13
38452;BME280;24231;52.514;13.438;2023-03-21T13:08:02;101002.98;;;10.61;71.39
38452;BME280;24231;52.514;13.438;2023-03-21T13:10:30;100998.06;;;10.88;70.29